Time;durP1;ratioP1;P1;durP2;ratioP2;P2;SDS_P1;SDS_P2;PMS_P1;PMS_P2;Temp;Humidity;BMP_temperature;BMP_pressure;BME280_temperature;BME280_humidity;BME280_pressure;Samples;Min_cycle;Max_cycle;Signal;HPM_P1;HPM_P2
2022/09/18 00:00:57;;;;;;;;;;;;;;;14.61;64.00;98959.13;4431828;32;19978;-89
2022/09/18 00:03:24;;;;;;;;;;;;;;;14.41;64.54;98962.84;4432094;32;20259;-87
2022/09/18 00:05:51;;;;;;;;;;;;;;;14.84;62.76;98962.28;4431353;32;19991;-89
2022/09/18 00:08:17;;;;;;;;;;;;;;;14.70;63.19;98964.19;4432022;32;20220;-89
2022/09/18 00:10:47;;;;;;;;;;;;;;;14.70;63.63;98953.78;4446132;32;20000;-88
2022/09/18 00:13:14;;;;;;;;;;;;;;;14.63;63.35;98944.34;4426996;32;19981;-87
2022/09/18 00:15:59;;;;;;;;;;;;;;;14.83;62.85;98950.09;4439051;32;19991;-86
2022/09/18 00:18:25;;;;;;;;;;;;;;;14.79;62.72;98945.84;4445847;32;20001;-87
2022/09/18 00:20:52;;;;;;;;;;;;;;;14.64;63.36;98951.25;4445602;32;20038;-85
2022/09/18 00:23:19;;;;;;;;;;;;;;;14.80;62.19;98944.94;4445732;32;20091;-88
2022/09/18 00:25:46;;;;;;;;;;;;;;;14.96;61.86;98949.91;3798377;32;10006016;-86
2022/09/18 00:28:13;;;;;;;;;;;;;;;14.64;62.99;98943.44;4438158;32;19969;-88
2022/09/18 00:30:40;;;;;;;;;;;;;;;14.63;62.69;98941.75;4445863;32;20362;-86
2022/09/18 00:33:06;;;;;;;;;;;;;;;14.81;61.51;98951.03;4445465;32;19985;-87
2022/09/18 00:35:33;;;;;;;;;;;;;;;14.49;62.95;98954.09;4446311;32;20004;-88
2022/09/18 00:38:00;;;;;;;;;;;;;;;14.63;62.32;98953.00;4445141;32;20060;-90
2022/09/18 00:40:27;;;;;;;;;;;;;;;14.70;61.68;98951.19;4445718;32;19989;-88
2022/09/18 00:42:54;;;;;;;;;;;;;;;14.28;62.73;98945.66;4446541;32;20015;-92
2022/09/18 00:45:21;;;;;;;;;;;;;;;14.29;61.83;98951.72;4437600;32;20053;-87
2022/09/18 00:47:48;;;;;;;;;;;;;;;14.18;62.44;98949.28;3807506;32;10010345;-86
2022/09/18 00:50:22;;;;;;;;;;;;;;;14.28;61.89;98950.00;4421099;32;20050;-88
2022/09/18 00:52:56;;;;;;;;;;;;;;;14.04;63.40;98945.97;4410132;32;20390;-87
2022/09/18 00:55:26;;;;;;;;;;;;;;;14.46;61.17;98943.72;4423320;32;20629;-87
2022/09/18 00:57:54;;;;;;;;;;;;;;;14.24;61.20;98944.00;4420833;32;20362;-79
2022/09/18 01:00:21;;;;;;;;;;;;;;;14.39;60.47;98954.22;4445118;32;19993;-82
2022/09/18 01:02:48;;;;;;;;;;;;;;;14.27;60.97;98953.50;4428986;32;20040;-85
2022/09/18 01:05:16;;;;;;;;;;;;;;;14.28;60.74;98956.09;4441209;32;20328;-82
2022/09/18 01:07:58;;;;;;;;;;;;;;;14.28;61.00;98960.44;4430935;32;20001;-82
2022/09/18 01:10:51;;;;;;;;;;;;;;;14.06;61.49;98965.91;4445385;32;19970;-83
2022/09/18 01:13:18;;;;;;;;;;;;;;;13.71;61.75;98968.91;4399900;32;19977;-80
2022/09/18 01:15:45;;;;;;;;;;;;;;;14.01;61.12;98966.81;4444972;32;19981;-80
2022/09/18 01:18:31;;;;;;;;;;;;;;;14.34;59.26;98975.97;4445152;32;20039;-80
2022/09/18 01:20:58;;;;;;;;;;;;;;;14.14;60.19;98978.84;4430917;32;20325;-83
2022/09/18 01:23:48;;;;;;;;;;;;;;;14.03;59.61;98983.28;4428534;32;20012;-84
2022/09/18 01:26:15;;;;;;;;;;;;;;;13.73;61.13;98983.62;4409129;32;19986;-81
2022/09/18 01:28:47;;;;;;;;;;;;;;;14.02;58.91;98986.78;4439377;32;20451;-80
2022/09/18 01:31:18;;;;;;;;;;;;;;;13.78;60.14;98991.34;4446759;32;19991;-80
2022/09/18 01:33:52;;;;;;;;;;;;;;;13.72;62.08;99001.84;4447343;32;20012;-82
2022/09/18 01:36:20;;;;;;;;;;;;;;;13.94;59.78;98998.16;4432784;32;19997;-80
2022/09/18 01:38:51;;;;;;;;;;;;;;;13.95;60.10;99012.88;4432357;32;19985;-87
2022/09/18 01:41:22;;;;;;;;;;;;;;;14.21;58.72;99016.06;4433461;32;19996;-84
2022/09/18 01:43:53;;;;;;;;;;;;;;;14.00;59.24;99028.41;4432634;32;20014;-81
2022/09/18 01:46:20;;;;;;;;;;;;;;;14.07;59.71;99026.59;4433439;32;20018;-85
2022/09/18 01:48:52;;;;;;;;;;;;;;;14.03;59.68;99037.94;4443811;32;19989;-86
2022/09/18 01:51:20;;;;;;;;;;;;;;;14.01;60.45;99039.69;4429627;32;19985;-80
2022/09/18 01:53:49;;;;;;;;;;;;;;;14.07;59.16;99056.13;4432481;32;19985;-83
2022/09/18 01:56:19;;;;;;;;;;;;;;;14.17;59.25;99046.47;4432959;32;19981;-81
2022/09/18 01:58:46;;;;;;;;;;;;;;;14.27;57.31;99053.28;4433362;32;19973;-82
2022/09/18 02:01:16;;;;;;;;;;;;;;;14.06;58.76;99058.72;4430103;32;20008;-87
2022/09/18 02:03:45;;;;;;;;;;;;;;;13.95;58.47;99066.66;4431697;32;20013;-80
2022/09/18 02:06:13;;;;;;;;;;;;;;;14.22;57.06;99064.63;4433377;32;20042;-85
2022/09/18 02:08:44;;;;;;;;;;;;;;;13.93;58.99;99073.59;4432007;32;19977;-83
2022/09/18 02:11:12;;;;;;;;;;;;;;;14.21;57.83;99068.97;4432801;32;20007;-86
2022/09/18 02:13:45;;;;;;;;;;;;;;;14.16;57.55;99075.97;4446733;32;20004;-87
2022/09/18 02:16:16;;;;;;;;;;;;;;;14.03;57.49;99074.38;4447462;32;20048;-85
2022/09/18 02:18:44;;;;;;;;;;;;;;;13.61;59.22;99068.69;4432652;32;20045;-83
2022/09/18 02:21:12;;;;;;;;;;;;;;;13.95;58.06;99077.91;4446347;32;19992;-87
2022/09/18 02:23:39;;;;;;;;;;;;;;;14.20;56.01;99077.66;4432639;32;20271;-86
2022/09/18 02:26:06;;;;;;;;;;;;;;;14.03;56.72;99089.97;4432762;32;19989;-87
2022/09/18 02:28:33;;;;;;;;;;;;;;;13.99;58.06;99093.50;4432664;32;20007;-83
2022/09/18 02:31:01;;;;;;;;;;;;;;;13.89;57.90;99098.78;4446395;32;19965;-87
2022/09/18 02:33:35;;;;;;;;;;;;;;;14.01;57.39;99096.94;4394542;32;19993;-86
2022/09/18 02:36:06;;;;;;;;;;;;;;;14.13;56.57;99097.66;4386363;32;20082;-86
2022/09/18 02:38:40;;;;;;;;;;;;;;;14.11;57.30;99109.00;4396668;32;20032;-87
2022/09/18 02:41:22;;;;;;;;;;;;;;;14.21;56.14;99110.63;4386194;32;19978;-87
2022/09/18 02:43:58;;;;;;;;;;;;;;;14.24;56.34;99105.38;4401083;32;19995;-85
2022/09/18 02:46:26;;;;;;;;;;;;;;;14.01;56.63;99112.53;4386666;32;19983;-85
2022/09/18 02:48:56;;;;;;;;;;;;;;;14.04;56.58;99117.72;4400006;32;20004;-84
2022/09/18 02:51:27;;;;;;;;;;;;;;;14.14;56.98;99114.16;4385970;32;19978;-83
2022/09/18 02:54:18;;;;;;;;;;;;;;;14.15;56.55;99116.75;4387048;32;19986;-86
2022/09/18 02:57:03;;;;;;;;;;;;;;;14.17;56.20;99116.75;4392036;32;19990;-86
2022/09/18 02:59:39;;;;;;;;;;;;;;;14.01;56.82;99120.34;4400676;32;19994;-86
2022/09/18 03:02:06;;;;;;;;;;;;;;;14.21;55.65;99120.19;4429585;32;19973;-85
2022/09/18 03:04:34;;;;;;;;;;;;;;;14.16;54.71;99117.59;4414037;32;19985;-84
2022/09/18 03:07:01;;;;;;;;;;;;;;;13.99;55.48;99127.31;4426237;32;19985;-82
2022/09/18 03:09:28;;;;;;;;;;;;;;;14.15;55.28;99121.09;4416397;32;19995;-85
2022/09/18 03:11:56;;;;;;;;;;;;;;;14.10;55.73;99122.88;4425347;32;19996;-85
2022/09/18 03:14:24;;;;;;;;;;;;;;;14.16;56.14;99133.22;4419056;32;20334;-86
2022/09/18 03:16:50;;;;;;;;;;;;;;;14.29;54.75;99133.97;4420298;32;19993;-86
2022/09/18 03:19:18;;;;;;;;;;;;;;;13.98;56.42;99134.28;4425909;32;20031;-85
2022/09/18 03:21:45;;;;;;;;;;;;;;;14.18;55.23;99139.28;4428842;32;19981;-86
2022/09/18 03:24:11;;;;;;;;;;;;;;;14.06;54.93;99136.78;4431182;32;20478;-85
2022/09/18 03:26:38;;;;;;;;;;;;;;;14.28;53.33;99143.50;4431204;32;20003;-84
2022/09/18 03:29:09;;;;;;;;;;;;;;;13.82;55.85;99146.56;4431307;32;20414;-86
2022/09/18 03:31:36;;;;;;;;;;;;;;;14.04;55.69;99148.94;4415953;32;20331;-84
2022/09/18 03:34:05;;;;;;;;;;;;;;;13.94;56.47;99159.47;4431139;32;19978;-86
2022/09/18 03:36:33;;;;;;;;;;;;;;;14.20;54.55;99150.56;4416575;32;19981;-84
2022/09/18 03:38:59;;;;;;;;;;;;;;;13.96;55.20;99157.69;4430949;32;20031;-86
2022/09/18 03:41:29;;;;;;;;;;;;;;;13.96;55.98;99157.69;4430044;32;19961;-85
2022/09/18 03:43:56;;;;;;;;;;;;;;;13.80;56.80;99165.66;4431197;32;19977;-86
2022/09/18 03:46:23;;;;;;;;;;;;;;;14.11;55.55;99166.25;4430874;32;20021;-87
2022/09/18 03:48:51;;;;;;;;;;;;;;;13.99;56.18;99161.16;4429832;32;20327;-86
2022/09/18 03:51:19;;;;;;;;;;;;;;;14.17;55.44;99161.00;4428822;32;20002;-86
2022/09/18 03:53:46;;;;;;;;;;;;;;;14.09;54.86;99170.59;4421738;32;20280;-86
2022/09/18 03:56:15;;;;;;;;;;;;;;;13.81;56.17;99173.41;4419912;32;19985;-86
2022/09/18 03:58:42;;;;;;;;;;;;;;;13.94;56.50;99180.28;4430987;32;20000;-87
2022/09/18 04:01:10;;;;;;;;;;;;;;;14.07;55.85;99180.16;4430158;32;19977;-83
2022/09/18 04:03:38;;;;;;;;;;;;;;;14.25;55.01;99172.19;4419501;32;20402;-83
2022/09/18 04:06:15;;;;;;;;;;;;;;;14.08;55.77;99184.50;4429663;32;19993;-85
2022/09/18 04:08:43;;;;;;;;;;;;;;;13.81;56.63;99186.44;4416823;32;20386;-86
2022/09/18 04:11:10;;;;;;;;;;;;;;;14.05;55.35;99182.78;4429060;32;20012;-86
2022/09/18 04:13:37;;;;;;;;;;;;;;;13.83;56.77;99182.09;4425047;32;20013;-86
2022/09/18 04:16:04;;;;;;;;;;;;;;;13.97;56.11;99189.78;4431209;32;19993;-86
2022/09/18 04:18:31;;;;;;;;;;;;;;;13.81;56.55;99183.81;4425163;32;19986;-87
2022/09/18 04:20:59;;;;;;;;;;;;;;;13.62;57.19;99187.44;4430541;32;19996;-86
2022/09/18 04:23:27;;;;;;;;;;;;;;;13.95;55.51;99192.41;4431114;32;20914;-86
2022/09/18 04:25:55;;;;;;;;;;;;;;;14.06;55.93;99188.84;4413110;32;20077;-85
2022/09/18 04:28:23;;;;;;;;;;;;;;;13.93;55.44;99193.28;4410362;32;19993;-85
2022/09/18 04:30:51;;;;;;;;;;;;;;;13.94;55.78;99190.69;4428722;32;20452;-88
2022/09/18 04:33:18;;;;;;;;;;;;;;;14.07;55.55;99199.25;4411040;32;19985;-85
2022/09/18 04:35:46;;;;;;;;;;;;;;;14.01;55.06;99191.50;4415229;32;20004;-84
2022/09/18 04:38:13;;;;;;;;;;;;;;;14.00;54.51;99188.88;4402504;32;20028;-83
2022/09/18 04:40:40;;;;;;;;;;;;;;;14.02;55.10;99197.56;4429382;32;20495;-87
2022/09/18 04:43:09;;;;;;;;;;;;;;;13.76;55.50;99190.81;4410285;32;20769;-86
2022/09/18 04:45:38;;;;;;;;;;;;;;;13.69;56.06;99194.34;4429962;32;20041;-82
2022/09/18 04:48:04;;;;;;;;;;;;;;;13.58;56.09;99201.34;4411435;32;20037;-85
2022/09/18 04:50:31;;;;;;;;;;;;;;;13.68;56.10;99195.19;4414859;32;20744;-88
2022/09/18 04:53:02;;;;;;;;;;;;;;;13.69;56.09;99202.16;4429733;32;20317;-82
2022/09/18 04:55:30;;;;;;;;;;;;;;;13.78;55.57;99215.06;4417765;32;19982;-82
2022/09/18 04:57:57;;;;;;;;;;;;;;;13.83;55.75;99213.31;4413184;32;20255;-88
2022/09/18 05:00:24;;;;;;;;;;;;;;;13.95;54.52;99222.75;4417436;32;19982;-83
2022/09/18 05:02:52;;;;;;;;;;;;;;;13.71;56.43;99223.78;4430737;32;20319;-84
2022/09/18 05:05:19;;;;;;;;;;;;;;;14.22;53.28;99220.81;4430694;32;20024;-81
2022/09/18 05:07:46;;;;;;;;;;;;;;;13.80;54.72;99226.31;4417495;32;19997;-82
2022/09/18 05:10:14;;;;;;;;;;;;;;;14.03;54.69;99225.28;4428282;32;19984;-86
2022/09/18 05:12:41;;;;;;;;;;;;;;;13.95;55.50;99228.81;4431906;32;20023;-83
2022/09/18 05:15:08;;;;;;;;;;;;;;;14.20;52.99;99223.44;4421279;32;20490;-87
2022/09/18 05:17:39;;;;;;;;;;;;;;;14.01;53.71;99232.25;4403046;32;20008;-82
2022/09/18 05:20:07;;;;;;;;;;;;;;;14.10;53.28;99233.06;4409799;32;19990;-85
2022/09/18 05:22:35;;;;;;;;;;;;;;;13.99;54.03;99231.41;4410167;32;20043;-83
2022/09/18 05:25:02;;;;;;;;;;;;;;;14.16;53.17;99238.19;4416659;32;20004;-86
2022/09/18 05:27:29;;;;;;;;;;;;;;;13.92;54.00;99228.84;4419016;32;20009;-87
2022/09/18 05:29:57;;;;;;;;;;;;;;;14.25;52.83;99232.06;4417492;32;20037;-83
2022/09/18 05:32:25;;;;;;;;;;;;;;;14.26;52.75;99228.56;4432374;32;20043;-84
2022/09/18 05:34:51;;;;;;;;;;;;;;;13.73;55.24;99227.25;4417511;32;20008;-83
2022/09/18 05:37:19;;;;;;;;;;;;;;;13.93;53.40;99235.78;4417143;32;20402;-79
2022/09/18 05:39:46;;;;;;;;;;;;;;;14.02;54.01;99234.00;4421143;32;19985;-86
2022/09/18 05:42:13;;;;;;;;;;;;;;;14.05;53.38;99236.56;4418631;32;20338;-79
2022/09/18 05:44:42;;;;;;;;;;;;;;;13.74;55.45;99247.19;4427683;32;19982;-88
2022/09/18 05:47:11;;;;;;;;;;;;;;;13.96;54.66;99235.75;4419658;32;19985;-85
2022/09/18 05:49:38;;;;;;;;;;;;;;;14.02;55.11;99234.00;4430173;32;20290;-82
2022/09/18 05:52:05;;;;;;;;;;;;;;;13.68;55.93;99235.06;4431217;32;19981;-82
2022/09/18 05:54:35;;;;;;;;;;;;;;;13.95;55.14;99239.25;4430748;32;20084;-82
2022/09/18 05:57:01;;;;;;;;;;;;;;;14.28;53.56;99239.84;4431197;32;19989;-77
2022/09/18 05:59:29;;;;;;;;;;;;;;;13.69;57.03;99242.03;4432347;32;19978;-94
2022/09/18 06:01:59;;;;;;;;;;;;;;;14.10;55.06;99242.59;4413178;32;20355;-80
2022/09/18 06:04:30;;;;;;;;;;;;;;;14.03;56.02;99235.72;4428399;32;20032;-82
2022/09/18 06:07:00;;;;;;;;;;;;;;;13.63;57.62;99246.41;4415279;32;20080;-82
2022/09/18 06:09:27;;;;;;;;;;;;;;;13.80;56.28;99239.34;4430546;32;20028;-83
2022/09/18 06:11:54;;;;;;;;;;;;;;;13.61;57.29;99253.34;4401353;32;19993;-85
2022/09/18 06:14:21;;;;;;;;;;;;;;;13.58;58.62;99253.34;4412009;32;20647;-84
2022/09/18 06:16:54;;;;;;;;;;;;;;;13.77;57.77;99254.97;4425984;32;20346;-83
2022/09/18 06:19:21;;;;;;;;;;;;;;;14.08;56.00;99254.75;4424388;32;20001;-82
2022/09/18 06:21:50;;;;;;;;;;;;;;;14.16;55.93;99253.81;4431355;32;19989;-80
2022/09/18 06:24:17;;;;;;;;;;;;;;;14.32;55.87;99259.75;4430580;32;20049;-83
2022/09/18 06:26:44;;;;;;;;;;;;;;;14.43;55.25;99263.13;4409629;32;20034;-84
2022/09/18 06:29:11;;;;;;;;;;;;;;;14.25;56.07;99263.28;4417513;32;19973;-84
2022/09/18 06:31:39;;;;;;;;;;;;;;;13.72;58.38;99262.81;4431015;32;19994;-83
2022/09/18 06:34:06;;;;;;;;;;;;;;;14.33;54.53;99271.91;4430707;32;19989;-87
2022/09/18 06:36:33;;;;;;;;;;;;;;;14.55;54.83;99269.13;4430253;32;20034;-80
2022/09/18 06:39:02;;;;;;;;;;;;;;;14.05;57.25;99266.06;4430926;32;19996;-79
2022/09/18 06:41:29;;;;;;;;;;;;;;;14.10;56.82;99273.81;4430767;32;20026;-85
2022/09/18 06:43:56;;;;;;;;;;;;;;;14.43;54.94;99268.34;4419315;32;19998;-83
2022/09/18 06:46:23;;;;;;;;;;;;;;;14.49;54.72;99266.59;4420936;32;19997;-82
2022/09/18 06:48:51;;;;;;;;;;;;;;;14.47;55.86;99257.91;4430033;32;19986;-87
2022/09/18 06:51:18;;;;;;;;;;;;;;;14.60;54.94;99256.94;4431926;32;20015;-91
2022/09/18 06:53:50;;;;;;;;;;;;;;;14.78;55.18;99248.94;4397817;32;20043;-87
2022/09/18 06:56:18;;;;;;;;;;;;;;;14.93;53.59;99257.47;4417678;32;19977;-79
2022/09/18 06:58:46;;;;;;;;;;;;;;;15.13;52.72;99263.34;4431242;32;20029;-78
2022/09/18 07:01:14;;;;;;;;;;;;;;;14.93;52.64;99249.66;4431375;32;20285;-85
2022/09/18 07:03:41;;;;;;;;;;;;;;;15.59;51.54;99254.91;4431516;32;20053;-80
2022/09/18 07:06:09;;;;;;;;;;;;;;;15.98;48.77;99242.19;4430620;32;19985;-79
2022/09/18 07:08:37;;;;;;;;;;;;;;;16.16;49.19;99252.34;4402550;32;20081;-77
2022/09/18 07:11:06;;;;;;;;;;;;;;;16.33;48.08;99259.06;4429769;32;19985;-81
2022/09/18 07:13:36;;;;;;;;;;;;;;;16.41;45.76;99273.72;4406603;32;19993;-81
2022/09/18 07:16:04;;;;;;;;;;;;;;;16.63;44.53;99263.75;4421290;32;20143;-81
2022/09/18 07:18:31;;;;;;;;;;;;;;;16.61;46.09;99265.53;4429636;32;20698;-84
2022/09/18 07:20:58;;;;;;;;;;;;;;;16.95;45.62;99264.97;4416746;32;20026;-82
2022/09/18 07:23:29;;;;;;;;;;;;;;;17.03;43.91;99268.25;4124602;32;10000190;-82
2022/09/18 07:25:58;;;;;;;;;;;;;;;17.33;43.69;99279.03;4418078;32;20840;-84
2022/09/18 07:28:25;;;;;;;;;;;;;;;17.13;43.49;99272.44;4430864;32;20741;-81
2022/09/18 07:30:53;;;;;;;;;;;;;;;16.63;45.24;99279.44;4430011;32;20019;-81
2022/09/18 07:33:20;;;;;;;;;;;;;;;16.43;45.05;99286.75;4431253;32;19998;-79
2022/09/18 07:35:47;;;;;;;;;;;;;;;16.31;44.50;99286.97;4430120;32;19982;-82
2022/09/18 07:38:15;;;;;;;;;;;;;;;16.47;44.26;99286.69;4416965;32;20056;-79
2022/09/18 07:40:44;;;;;;;;;;;;;;;16.42;43.06;99295.47;4430993;32;20000;-79
2022/09/18 07:43:11;;;;;;;;;;;;;;;16.29;44.49;99294.81;4416906;32;19981;-82
2022/09/18 07:45:40;;;;;;;;;;;;;;;16.20;44.58;99293.19;4430319;32;19997;-76
2022/09/18 07:48:08;;;;;;;;;;;;;;;16.34;44.09;99307.81;4416099;32;19993;-83
2022/09/18 07:50:36;;;;;;;;;;;;;;;16.14;45.45;99313.31;4430570;32;19985;-82
2022/09/18 07:53:04;;;;;;;;;;;;;;;16.17;44.88;99305.44;4431781;32;20021;-81
2022/09/18 07:55:33;;;;;;;;;;;;;;;16.05;45.34;99301.28;4415231;32;20004;-83
2022/09/18 07:58:03;;;;;;;;;;;;;;;16.53;44.36;99293.56;4431029;32;20041;-83
2022/09/18 08:00:33;;;;;;;;;;;;;;;16.94;42.99;99305.94;4413151;32;19973;-86
2022/09/18 08:03:02;;;;;;;;;;;;;;;16.99;43.51;99313.69;4446501;32;19985;-83
2022/09/18 08:05:32;;;;;;;;;;;;;;;17.54;42.92;99307.34;4445833;32;20047;-82
2022/09/18 08:08:05;;;;;;;;;;;;;;;17.15;43.93;99309.88;4432456;32;19997;-84
2022/09/18 08:10:33;;;;;;;;;;;;;;;17.19;44.85;99316.75;4446019;32;20033;-86
2022/09/18 08:13:01;;;;;;;;;;;;;;;17.09;44.86;99314.37;4446711;32;19995;-86
2022/09/18 08:15:29;;;;;;;;;;;;;;;17.49;43.61;99319.69;4443796;32;19989;-87
2022/09/18 08:18:19;;;;;;;;;;;;;;;17.46;43.56;99324.97;4434712;32;20030;-82
2022/09/18 08:20:46;;;;;;;;;;;;;;;17.42;43.52;99324.19;4431985;32;19973;-79
2022/09/18 08:23:13;;;;;;;;;;;;;;;17.26;47.17;99316.66;4445649;32;20440;-83
2022/09/18 08:25:42;;;;;;;;;;;;;;;17.37;43.53;99330.41;4425891;32;20039;-79
2022/09/18 08:28:09;;;;;;;;;;;;;;;17.42;43.49;99323.28;4444370;32;19989;-78
2022/09/18 08:30:37;;;;;;;;;;;;;;;17.05;44.97;99323.16;4431139;32;20415;-78
2022/09/18 08:33:05;;;;;;;;;;;;;;;16.87;46.34;99325.22;4446013;32;20039;-82
2022/09/18 08:35:32;;;;;;;;;;;;;;;17.14;43.48;99323.84;4427446;32;19985;-79
2022/09/18 08:37:59;;;;;;;;;;;;;;;17.34;44.43;99330.44;4429229;32;20037;-84
2022/09/18 08:40:38;;;;;;;;;;;;;;;17.77;41.75;99308.66;4442239;32;19984;-86
2022/09/18 08:43:19;;;;;;;;;;;;;;;17.77;43.63;99329.59;4417651;32;20632;-80
2022/09/18 08:45:59;;;;;;;;;;;;;;;18.08;40.54;99341.12;4412504;32;19981;-86
2022/09/18 08:48:28;;;;;;;;;;;;;;;17.41;43.60;99316.34;4422830;32;20008;-86
2022/09/18 08:51:08;;;;;;;;;;;;;;;17.56;41.20;99336.13;4443393;32;19977;-92
2022/09/18 08:53:37;;;;;;;;;;;;;;;17.58;40.92;99340.44;4427826;32;19982;-93
2022/09/18 08:56:06;;;;;;;;;;;;;;;17.44;40.59;99342.47;4430657;32;20056;-87
2022/09/18 08:58:34;;;;;;;;;;;;;;;17.24;42.42;99342.00;4431063;32;20016;-81
2022/09/18 09:01:12;;;;;;;;;;;;;;;17.30;42.18;99344.50;4426648;32;19985;-84
2022/09/18 09:03:58;;;;;;;;;;;;;;;17.00;43.12;99352.00;4430390;32;20000;-81
2022/09/18 09:06:28;;;;;;;;;;;;;;;16.86;42.62;99348.78;4444766;32;19985;-84
2022/09/18 09:08:59;;;;;;;;;;;;;;;16.92;42.65;99344.31;4444501;32;19999;-83
2022/09/18 09:11:38;;;;;;;;;;;;;;;16.92;43.01;99348.66;4426975;32;20061;-88
2022/09/18 09:14:09;;;;;;;;;;;;;;;16.76;43.00;99347.22;4407922;32;20063;-89
2022/09/18 09:16:40;;;;;;;;;;;;;;;16.48;44.17;99348.47;4441406;32;19986;-83
2022/09/18 09:19:13;;;;;;;;;;;;;;;16.52;44.26;99349.28;4426332;32;20003;-81
2022/09/18 09:21:40;;;;;;;;;;;;;;;16.48;44.58;99353.72;4430807;32;20514;-79
2022/09/18 09:24:07;;;;;;;;;;;;;;;16.67;45.46;99346.44;4442642;32;20033;-85
2022/09/18 09:26:35;;;;;;;;;;;;;;;16.77;43.79;99338.47;4445312;32;20318;-78
2022/09/18 09:29:30;;;;;;;;;;;;;;;16.31;48.16;99339.19;4443608;32;20001;-86
2022/09/18 09:32:17;;;;;;;;;;;;;;;16.74;43.75;99341.97;4437478;32;19985;-79
2022/09/18 09:34:45;;;;;;;;;;;;;;;16.71;44.11;99342.88;4435674;32;20015;-86
2022/09/18 09:37:21;;;;;;;;;;;;;;;16.56;44.68;99351.00;4443526;32;19969;-86
2022/09/18 09:39:53;;;;;;;;;;;;;;;15.91;46.19;99347.59;4443714;32;19989;-90
2022/09/18 09:42:25;;;;;;;;;;;;;;;16.15;45.88;99343.78;4443795;32;20369;-87
2022/09/18 09:45:22;;;;;;;;;;;;;;;16.61;45.05;99343.06;4428952;32;19995;-78
2022/09/18 09:47:52;;;;;;;;;;;;;;;16.87;43.32;99355.72;4429191;32;20330;-90
2022/09/18 09:50:31;;;;;;;;;;;;;;;16.44;45.45;99345.97;4441896;32;20008;-91
2022/09/18 09:53:03;;;;;;;;;;;;;;;16.52;45.11;99349.28;4446090;32;19981;-93
2022/09/18 09:55:30;;;;;;;;;;;;;;;16.68;44.10;99363.84;4418027;32;20309;-89
2022/09/18 09:58:02;;;;;;;;;;;;;;;16.28;46.89;99364.47;4428983;32;20039;-92
2022/09/18 10:01:04;;;;;;;;;;;;;;;16.55;46.04;99359.69;4391315;32;10011144;-85
2022/09/18 10:03:50;;;;;;;;;;;;;;;16.98;44.25;99359.03;4412742;32;20013;-88
2022/09/18 10:06:39;;;;;;;;;;;;;;;16.72;44.89;99367.28;4444998;32;19995;-89
2022/09/18 10:09:13;;;;;;;;;;;;;;;16.71;44.71;99371.62;4445190;32;20010;-88
2022/09/18 10:11:41;;;;;;;;;;;;;;;16.63;44.71;99377.88;4442387;32;20385;-91
2022/09/18 10:14:10;;;;;;;;;;;;;;;16.77;43.61;99385.53;4427697;32;19981;-88
2022/09/18 10:16:41;;;;;;;;;;;;;;;16.55;43.73;99383.22;4432763;32;19993;-82
2022/09/18 10:19:10;;;;;;;;;;;;;;;16.52;42.43;99393.72;4431404;32;19977;-89
2022/09/18 10:21:37;;;;;;;;;;;;;;;16.54;42.94;99373.66;4430942;32;20483;-90
2022/09/18 10:24:09;;;;;;;;;;;;;;;16.71;43.11;99374.25;4446555;32;20005;-84
2022/09/18 10:26:38;;;;;;;;;;;;;;;16.61;42.36;99374.41;4445905;32;20345;-92
2022/09/18 10:29:06;;;;;;;;;;;;;;;17.01;41.80;99377.28;4433415;32;20060;-89
2022/09/18 10:32:05;;;;;;;;;;;;;;;17.22;41.29;99375.16;4428074;32;20044;-84
2022/09/18 10:34:39;;;;;;;;;;;;;;;17.04;42.78;99374.59;4431368;32;19992;-87
2022/09/18 10:37:12;;;;;;;;;;;;;;;17.24;42.09;99373.38;4445304;32;19989;-90
2022/09/18 10:39:50;;;;;;;;;;;;;;;17.48;44.29;99385.13;4446576;32;20437;-89
2022/09/18 10:42:18;;;;;;;;;;;;;;;17.44;41.34;99368.63;4444968;32;19977;-91
2022/09/18 10:44:50;;;;;;;;;;;;;;;17.14;43.13;99376.16;4433016;32;19996;-88
2022/09/18 10:47:24;;;;;;;;;;;;;;;17.46;42.91;99377.31;4413401;32;19993;-80
2022/09/18 10:49:56;;;;;;;;;;;;;;;17.35;41.77;99366.19;4431205;32;19995;-87
2022/09/18 10:52:25;;;;;;;;;;;;;;;17.42;44.12;99360.81;4380904;32;20001;-88
2022/09/18 10:54:56;;;;;;;;;;;;;;;17.59;41.98;99372.69;4426457;32;19997;-96
2022/09/18 10:57:37;;;;;;;;;;;;;;;17.58;41.25;99373.56;4431443;32;20314;-91
2022/09/18 11:00:25;;;;;;;;;;;;;;;17.72;41.65;99374.16;4422846;32;20378;-90
2022/09/18 11:03:13;;;;;;;;;;;;;;;17.66;42.85;99369.91;4433527;32;20335;-94
2022/09/18 11:05:54;;;;;;;;;;;;;;;18.24;40.72;99372.22;4432639;32;19999;-95
2022/09/18 11:08:25;;;;;;;;;;;;;;;17.93;43.13;99382.50;4429375;32;20342;-94
2022/09/18 11:10:58;;;;;;;;;;;;;;;18.03;40.69;99370.94;4439443;32;19996;-92
2022/09/18 11:13:25;;;;;;;;;;;;;;;18.15;41.33;99375.03;4431718;32;19989;-93
2022/09/18 11:15:54;;;;;;;;;;;;;;;18.10;40.20;99381.25;4432021;32;19999;-94
2022/09/18 11:18:22;;;;;;;;;;;;;;;18.08;41.40;99372.56;4432376;32;20001;-90
2022/09/18 11:20:50;;;;;;;;;;;;;;;17.66;43.14;99374.28;4446247;32;20029;-94
2022/09/18 11:23:18;;;;;;;;;;;;;;;17.57;43.28;99391.03;4406837;32;20286;-93
2022/09/18 11:25:45;;;;;;;;;;;;;;;17.63;42.48;99385.69;4446147;32;19986;-92
2022/09/18 11:28:20;;;;;;;;;;;;;;;17.86;43.54;99381.75;4445906;32;19996;-92
2022/09/18 11:31:18;;;;;;;;;;;;;;;17.83;42.77;99374.81;4420776;32;20017;-92
2022/09/18 11:33:46;;;;;;;;;;;;;;;17.90;42.39;99372.97;4396236;32;19997;-90
2022/09/18 11:36:22;;;;;;;;;;;;;;;17.97;40.41;99377.19;4394092;32;20033;-92
2022/09/18 11:38:50;;;;;;;;;;;;;;;17.96;41.79;99375.44;4384028;32;20069;-93
2022/09/18 11:41:25;;;;;;;;;;;;;;;18.05;39.98;99371.75;4403063;32;19982;-86
2022/09/18 11:44:03;;;;;;;;;;;;;;;18.15;40.23;99367.19;4386035;32;20036;-91
2022/09/18 11:46:31;;;;;;;;;;;;;;;18.35;39.48;99375.47;4384272;32;20078;-86
2022/09/18 11:49:02;;;;;;;;;;;;;;;18.51;40.52;99363.72;4395607;32;20038;-91
2022/09/18 11:51:40;;;;;;;;;;;;;;;18.37;38.80;99363.16;4401677;32;20027;-87
2022/09/18 11:54:07;;;;;;;;;;;;;;;18.44;38.31;99363.88;4386720;32;20002;-86
2022/09/18 11:56:37;;;;;;;;;;;;;;;18.35;39.62;99365.84;4404769;32;20008;-85
2022/09/18 11:59:08;;;;;;;;;;;;;;;18.49;39.65;99357.62;4394456;32;20031;-88
2022/09/18 12:01:40;;;;;;;;;;;;;;;18.43;41.83;99357.78;4384670;32;19986;-86
2022/09/18 12:04:40;;;;;;;;;;;;;;;18.91;37.83;99364.53;4381194;32;19986;-86
2022/09/18 12:07:10;;;;;;;;;;;;;;;18.63;37.81;99353.81;4387387;32;20006;-77
2022/09/18 12:09:40;;;;;;;;;;;;;;;18.68;38.57;99355.44;4397951;32;19978;-80
2022/09/18 12:12:11;;;;;;;;;;;;;;;19.11;36.89;99350.88;4385467;32;19989;-91
2022/09/18 12:14:46;;;;;;;;;;;;;;;19.39;37.28;99351.00;4381851;32;19990;-88
2022/09/18 12:17:16;;;;;;;;;;;;;;;19.55;35.23;99354.06;4396989;32;19994;-87
2022/09/18 12:19:48;;;;;;;;;;;;;;;19.55;35.63;99352.28;4400946;32;19986;-87
2022/09/18 12:22:16;;;;;;;;;;;;;;;19.63;35.94;99338.94;3927185;32;5010934;-86
2022/09/18 12:24:45;;;;;;;;;;;;;;;19.10;36.63;99346.53;4401686;32;20045;-89
2022/09/18 12:27:31;;;;;;;;;;;;;;;19.16;38.27;99349.00;4400679;32;20392;-93
2022/09/18 12:30:12;;;;;;;;;;;;;;;19.41;34.26;99344.81;4415162;32;20417;-89
2022/09/18 12:32:38;;;;;;;;;;;;;;;19.21;35.64;99357.62;4400843;32;20044;-88
2022/09/18 12:35:18;;;;;;;;;;;;;;;19.01;35.92;99345.87;4426666;32;20043;-88
2022/09/18 12:38:01;;;;;;;;;;;;;;;19.21;34.11;99347.13;4428489;32;20004;-89
2022/09/18 12:40:42;;;;;;;;;;;;;;;19.17;34.38;99356.81;4408079;32;20409;-89
2022/09/18 12:43:35;;;;;;;;;;;;;;;19.18;32.49;99347.22;4424174;32;19982;-92
2022/09/18 12:46:17;;;;;;;;;;;;;;;19.47;33.42;99328.88;4418264;32;19992;-91
2022/09/18 12:48:48;;;;;;;;;;;;;;;19.19;35.69;99346.28;4398292;32;19986;-82
2022/09/18 12:51:23;;;;;;;;;;;;;;;19.11;36.06;99340.38;4416379;32;20016;-87
2022/09/18 12:53:59;;;;;;;;;;;;;;;19.59;34.58;99337.28;4430218;32;19988;-87
2022/09/18 12:56:44;;;;;;;;;;;;;;;19.80;32.31;99328.84;4417576;32;20000;-89
2022/09/18 12:59:20;;;;;;;;;;;;;;;19.81;32.98;99337.56;4426442;32;20052;-84
2022/09/18 13:02:00;;;;;;;;;;;;;;;20.04;33.33;99336.88;4401470;32;19994;-89
2022/09/18 13:04:30;;;;;;;;;;;;;;;20.19;31.33;99339.03;4425781;32;20028;-91